sensor_id;sensor_type;location;lat;lon;timestamp;pressure;altitude;pressure_sealevel;temperature;humidity
41202;BME280;26936;50.524;8.684;2022-10-18T00:01:33;100273.06;;;16.14;100.00
41202;BME280;26936;50.524;8.684;2022-10-18T00:03:58;100280.34;;;16.15;100.00
41202;BME280;26936;50.524;8.684;2022-10-18T00:06:24;100268.66;;;16.13;100.00
41202;BME280;26936;50.524;8.684;2022-10-18T00:08:49;100261.72;;;16.14;100.00
41202;BME280;26936;50.524;8.684;2022-10-18T00:11:14;100268.66;;;16.13;100.00
41202;BME280;26936;50.524;8.684;2022-10-18T00:13:39;100258.25;;;16.10;100.00
41202;BME280;26936;50.524;8.684;2022-10-18T00:16:13;100263.59;;;16.08;100.00
41202;BME280;26936;50.524;8.684;2022-10-18T00:18:39;100264.22;;;16.12;100.00
41202;BME280;26936;50.524;8.684;2022-10-18T00:21:09;100271.19;;;16.11;100.00
41202;BME280;26936;50.524;8.684;2022-10-18T00:23:35;100268.81;;;16.09;100.00
41202;BME280;26936;50.524;8.684;2022-10-18T00:26:04;100265.97;;;16.09;100.00
41202;BME280;26936;50.524;8.684;2022-10-18T00:28:31;100264.41;;;16.08;100.00
41202;BME280;26936;50.524;8.684;2022-10-18T00:30:57;100263.13;;;16.09;100.00
41202;BME280;26936;50.524;8.684;2022-10-18T00:33:32;100254.94;;;16.11;100.00
41202;BME280;26936;50.524;8.684;2022-10-18T00:35:59;100257.28;;;16.13;100.00
41202;BME280;26936;50.524;8.684;2022-10-18T00:38:24;100263.13;;;16.09;100.00
41202;BME280;26936;50.524;8.684;2022-10-18T00:40:49;100256.50;;;16.12;100.00
41202;BME280;26936;50.524;8.684;2022-10-18T00:43:15;100255.25;;;16.13;100.00
41202;BME280;26936;50.524;8.684;2022-10-18T00:45:42;100254.44;;;16.13;100.00
41202;BME280;26936;50.524;8.684;2022-10-18T00:48:07;100254.44;;;16.13;100.00
41202;BME280;26936;50.524;8.684;2022-10-18T00:50:33;100262.19;;;16.12;100.00
41202;BME280;26936;50.524;8.684;2022-10-18T00:53:02;100254.78;;;16.15;100.00
41202;BME280;26936;50.524;8.684;2022-10-18T00:55:30;100254.78;;;16.15;100.00
41202;BME280;26936;50.524;8.684;2022-10-18T00:57:56;100261.38;;;16.12;100.00
41202;BME280;26936;50.524;8.684;2022-10-18T01:00:22;100269.28;;;16.08;100.00
41202;BME280;26936;50.524;8.684;2022-10-18T01:02:47;100270.06;;;16.08;100.00
41202;BME280;26936;50.524;8.684;2022-10-18T01:05:15;100267.84;;;16.03;100.00
41202;BME280;26936;50.524;8.684;2022-10-18T01:10:36;100266.25;;;16.02;100.00
41202;BME280;26936;50.524;8.684;2022-10-18T01:19:05;100239.91;;;16.02;100.00
41202;BME280;26936;50.524;8.684;2022-10-18T01:21:53;100237.69;;;15.97;100.00
41202;BME280;26936;50.524;8.684;2022-10-18T01:27:37;100233.91;;;16.00;100.00
41202;BME280;26936;50.524;8.684;2022-10-18T01:32:53;100205.78;;;15.93;100.00
41202;BME280;26936;50.524;8.684;2022-10-18T01:35:25;100202.13;;;15.92;100.00
41202;BME280;26936;50.524;8.684;2022-10-18T01:37:52;100191.72;;;15.89;100.00
41202;BME280;26936;50.524;8.684;2022-10-18T01:40:22;100197.41;;;15.89;100.00
41202;BME280;26936;50.524;8.684;2022-10-18T01:42:48;100196.16;;;15.90;100.00
41202;BME280;26936;50.524;8.684;2022-10-18T01:45:15;100195.22;;;15.93;100.00
41202;BME280;26936;50.524;8.684;2022-10-18T01:47:43;100193.16;;;15.94;100.00
41202;BME280;26936;50.524;8.684;2022-10-18T01:50:09;100195.53;;;15.95;100.00
41202;BME280;26936;50.524;8.684;2022-10-18T01:52:35;100191.41;;;15.96;100.00
41202;BME280;26936;50.524;8.684;2022-10-18T01:55:01;100196.63;;;15.98;100.00
41202;BME280;26936;50.524;8.684;2022-10-18T02:00:02;100222.84;;;16.02;100.00
41202;BME280;26936;50.524;8.684;2022-10-18T02:02:41;100228.22;;;16.00;100.00
41202;BME280;26936;50.524;8.684;2022-10-18T02:05:26;100228.06;;;16.03;100.00
41202;BME280;26936;50.524;8.684;2022-10-18T02:08:17;100231.06;;;16.00;100.00
41202;BME280;26936;50.524;8.684;2022-10-18T02:10:53;100229.31;;;16.02;100.00
41202;BME280;26936;50.524;8.684;2022-10-18T02:13:22;100226.47;;;15.93;100.00
41202;BME280;26936;50.524;8.684;2022-10-18T02:15:53;100218.56;;;15.88;100.00
41202;BME280;26936;50.524;8.684;2022-10-18T02:18:28;100211.75;;;15.86;100.00
41202;BME280;26936;50.524;8.684;2022-10-18T02:20:57;100220.59;;;15.88;100.00
41202;BME280;26936;50.524;8.684;2022-10-18T02:23:25;100229.59;;;15.86;100.00
41202;BME280;26936;50.524;8.684;2022-10-18T02:25:52;100228.78;;;15.86;100.00
41202;BME280;26936;50.524;8.684;2022-10-18T02:28:17;100228.78;;;15.86;100.00
41202;BME280;26936;50.524;8.684;2022-10-18T02:31:01;100209.69;;;15.86;100.00
41202;BME280;26936;50.524;8.684;2022-10-18T02:36:33;100206.22;;;15.82;100.00
41202;BME280;26936;50.524;8.684;2022-10-18T02:39:07;100201.03;;;15.81;100.00
41202;BME280;26936;50.524;8.684;2022-10-18T02:41:35;100205.91;;;15.80;100.00
41202;BME280;26936;50.524;8.684;2022-10-18T02:44:00;100211.44;;;15.84;100.00
41202;BME280;26936;50.524;8.684;2022-10-18T02:46:26;100214.75;;;15.82;100.00
41202;BME280;26936;50.524;8.684;2022-10-18T02:48:51;100207.81;;;15.83;100.00
41202;BME280;26936;50.524;8.684;2022-10-18T02:51:16;100202.44;;;15.85;100.00
41202;BME280;26936;50.524;8.684;2022-10-18T02:53:41;100201.97;;;15.87;100.00
41202;BME280;26936;50.524;8.684;2022-10-18T02:56:07;100200.56;;;15.82;100.00
41202;BME280;26936;50.524;8.684;2022-10-18T02:58:33;100201.31;;;15.83;100.00
41202;BME280;26936;50.524;8.684;2022-10-18T03:00:58;100194.06;;;15.82;100.00
41202;BME280;26936;50.524;8.684;2022-10-18T03:03:23;100190.91;;;15.80;100.00
41202;BME280;26936;50.524;8.684;2022-10-18T03:05:50;100196.59;;;15.80;100.00
41202;BME280;26936;50.524;8.684;2022-10-18T03:08:15;100207.94;;;15.80;100.00
41202;BME280;26936;50.524;8.684;2022-10-18T03:10:45;100203.06;;;15.80;100.00
41202;BME280;26936;50.524;8.684;2022-10-18T03:13:10;100205.09;;;15.80;100.00
41202;BME280;26936;50.524;8.684;2022-10-18T03:15:36;100219.31;;;15.80;100.00
41202;BME280;26936;50.524;8.684;2022-10-18T03:18:01;100232.91;;;15.85;100.00
41202;BME280;26936;50.524;8.684;2022-10-18T03:20:27;100237.31;;;15.86;100.00
41202;BME280;26936;50.524;8.684;2022-10-18T03:22:52;100237.69;;;15.97;100.00
41202;BME280;26936;50.524;8.684;2022-10-18T03:25:17;100240.00;;;15.89;100.00
41202;BME280;26936;50.524;8.684;2022-10-18T03:27:42;100237.47;;;15.82;100.00
41202;BME280;26936;50.524;8.684;2022-10-18T03:30:08;100231.94;;;15.79;100.00
41202;BME280;26936;50.524;8.684;2022-10-18T03:32:36;100232.41;;;15.77;100.00
41202;BME280;26936;50.524;8.684;2022-10-18T03:35:01;100235.72;;;15.76;100.00
41202;BME280;26936;50.524;8.684;2022-10-18T03:37:26;100251.81;;;15.79;100.00
41202;BME280;26936;50.524;8.684;2022-10-18T03:39:51;100253.88;;;15.78;100.00
41202;BME280;26936;50.524;8.684;2022-10-18T03:42:17;100253.38;;;15.80;100.00
41202;BME280;26936;50.524;8.684;2022-10-18T03:44:42;100246.91;;;15.79;100.00
41202;BME280;26936;50.524;8.684;2022-10-18T03:47:08;100251.03;;;15.78;100.00
41202;BME280;26936;50.524;8.684;2022-10-18T03:49:33;100250.69;;;15.76;100.00
41202;BME280;26936;50.524;8.684;2022-10-18T03:51:58;100257.16;;;15.77;100.00
41202;BME280;26936;50.524;8.684;2022-10-18T03:54:23;100244.53;;;15.78;100.00
41202;BME280;26936;50.524;8.684;2022-10-18T03:56:48;100248.97;;;15.79;100.00
41202;BME280;26936;50.524;8.684;2022-10-18T03:59:14;100244.88;;;15.80;100.00
41202;BME280;26936;50.524;8.684;2022-10-18T04:01:41;100249.75;;;15.79;100.00
41202;BME280;26936;50.524;8.684;2022-10-18T04:04:06;100255.00;;;15.81;100.00
41202;BME280;26936;50.524;8.684;2022-10-18T04:06:31;100253.56;;;15.85;100.00
41202;BME280;26936;50.524;8.684;2022-10-18T04:08:56;100243.00;;;15.86;100.00
41202;BME280;26936;50.524;8.684;2022-10-18T04:11:22;100240.47;;;15.88;100.00
41202;BME280;26936;50.524;8.684;2022-10-18T04:13:47;100231.97;;;15.88;100.00
41202;BME280;26936;50.524;8.684;2022-10-18T04:16:12;100217.41;;;15.86;100.00
41202;BME280;26936;50.524;8.684;2022-10-18T04:18:38;100211.75;;;15.86;100.00
41202;BME280;26936;50.524;8.684;2022-10-18T04:21:03;100220.25;;;15.86;100.00
41202;BME280;26936;50.524;8.684;2022-10-18T04:23:28;100213.66;;;15.89;100.00
41202;BME280;26936;50.524;8.684;2022-10-18T04:25:53;100213.34;;;15.87;100.00
41202;BME280;26936;50.524;8.684;2022-10-18T04:28:19;100207.63;;;15.78;100.00
41202;BME280;26936;50.524;8.684;2022-10-18T04:30:49;100200.56;;;15.82;100.00
41202;BME280;26936;50.524;8.684;2022-10-18T04:33:14;100188.53;;;15.78;100.00
41202;BME280;26936;50.524;8.684;2022-10-18T04:35:40;100183.19;;;15.80;100.00
41202;BME280;26936;50.524;8.684;2022-10-18T04:38:05;100200.22;;;15.80;100.00
41202;BME280;26936;50.524;8.684;2022-10-18T04:40:30;100202.59;;;15.82;100.00
41202;BME280;26936;50.524;8.684;2022-10-18T04:42:55;100198.19;;;15.81;100.00
41202;BME280;26936;50.524;8.684;2022-10-18T04:45:21;100214.91;;;15.79;100.00
41202;BME280;26936;50.524;8.684;2022-10-18T04:47:46;100209.53;;;15.81;100.00
41202;BME280;26936;50.524;8.684;2022-10-18T04:50:11;100209.97;;;15.79;100.00
41202;BME280;26936;50.524;8.684;2022-10-18T04:52:36;100208.59;;;15.84;100.00
41202;BME280;26936;50.524;8.684;2022-10-18T04:55:02;100193.59;;;15.83;100.00
41202;BME280;26936;50.524;8.684;2022-10-18T04:57:27;100194.41;;;15.84;100.00
41202;BME280;26936;50.524;8.684;2022-10-18T04:59:52;100201.66;;;15.85;100.00
41202;BME280;26936;50.524;8.684;2022-10-18T05:02:18;100189.81;;;15.86;100.00
41202;BME280;26936;50.524;8.684;2022-10-18T05:04:43;100206.72;;;15.90;100.00
41202;BME280;26936;50.524;8.684;2022-10-18T05:07:08;100222.19;;;15.89;100.00
41202;BME280;26936;50.524;8.684;2022-10-18T05:09:34;100226.75;;;15.86;100.00
41202;BME280;26936;50.524;8.684;2022-10-18T05:11:59;100227.53;;;15.87;100.00
41202;BME280;26936;50.524;8.684;2022-10-18T05:14:24;100222.97;;;15.89;100.00
41202;BME280;26936;50.524;8.684;2022-10-18T05:16:49;100224.56;;;15.90;100.00
41202;BME280;26936;50.524;8.684;2022-10-18T05:19:15;100222.50;;;15.91;100.00
41202;BME280;26936;50.524;8.684;2022-10-18T05:21:40;100218.41;;;15.92;100.00
41202;BME280;26936;50.524;8.684;2022-10-18T05:24:05;100220.78;;;15.93;100.00
41202;BME280;26936;50.524;8.684;2022-10-18T05:26:30;100213.50;;;15.92;100.00
41202;BME280;26936;50.524;8.684;2022-10-18T05:28:56;100219.19;;;15.92;100.00
41202;BME280;26936;50.524;8.684;2022-10-18T05:31:21;100216.34;;;15.92;100.00
41202;BME280;26936;50.524;8.684;2022-10-18T05:33:46;100213.34;;;15.96;100.00
41202;BME280;26936;50.524;8.684;2022-10-18T05:36:11;100223.47;;;15.97;100.00
41202;BME280;26936;50.524;8.684;2022-10-18T05:38:38;100227.56;;;15.96;100.00
41202;BME280;26936;50.524;8.684;2022-10-18T05:41:05;100224.25;;;15.97;100.00
41202;BME280;26936;50.524;8.684;2022-10-18T05:43:31;100218.25;;;15.95;100.00
41202;BME280;26936;50.524;8.684;2022-10-18T05:45:56;100224.25;;;15.97;100.00
41202;BME280;26936;50.524;8.684;2022-10-18T05:48:21;100220.50;;;16.00;100.00
41202;BME280;26936;50.524;8.684;2022-10-18T05:50:47;100225.84;;;15.98;100.00
41202;BME280;26936;50.524;8.684;2022-10-18T05:53:12;100217.78;;;15.97;100.00
41202;BME280;26936;50.524;8.684;2022-10-18T05:55:37;100216.53;;;15.98;100.00
41202;BME280;26936;50.524;8.684;2022-10-18T05:58:02;100219.34;;;15.98;100.00
41202;BME280;26936;50.524;8.684;2022-10-18T06:00:28;100218.09;;;15.99;100.00
41202;BME280;26936;50.524;8.684;2022-10-18T06:02:54;100223.00;;;15.98;100.00
41202;BME280;26936;50.524;8.684;2022-10-18T06:05:19;100223.78;;;15.99;100.00
41202;BME280;26936;50.524;8.684;2022-10-18T06:07:45;100228.22;;;16.00;100.00
41202;BME280;26936;50.524;8.684;2022-10-18T06:10:10;100221.25;;;16.01;100.00
41202;BME280;26936;50.524;8.684;2022-10-18T06:12:35;100220.78;;;16.02;100.00
41202;BME280;26936;50.524;8.684;2022-10-18T06:15:00;100217.94;;;16.02;100.00
41202;BME280;26936;50.524;8.684;2022-10-18T06:17:26;100224.75;;;16.05;100.00
41202;BME280;26936;50.524;8.684;2022-10-18T06:19:51;100219.84;;;16.05;100.00
41202;BME280;26936;50.524;8.684;2022-10-18T06:22:16;100221.91;;;16.05;100.00
41202;BME280;26936;50.524;8.684;2022-10-18T06:24:42;100224.28;;;16.06;100.00
41202;BME280;26936;50.524;8.684;2022-10-18T06:27:07;100223.97;;;16.04;100.00
41202;BME280;26936;50.524;8.684;2022-10-18T06:29:34;100226.47;;;16.02;100.00
41202;BME280;26936;50.524;8.684;2022-10-18T06:32:00;100231.69;;;16.04;100.00
41202;BME280;26936;50.524;8.684;2022-10-18T06:34:25;100230.09;;;16.03;100.00
41202;BME280;26936;50.524;8.684;2022-10-18T06:36:51;100233.59;;;16.07;100.00
41202;BME280;26936;50.524;8.684;2022-10-18T06:39:16;100234.38;;;16.07;100.00
41202;BME280;26936;50.524;8.684;2022-10-18T06:41:44;100229.50;;;16.08;100.00
41202;BME280;26936;50.524;8.684;2022-10-18T06:44:09;100245.13;;;16.12;100.00
41202;BME280;26936;50.524;8.684;2022-10-18T06:46:42;100249.09;;;16.15;100.00
41202;BME280;26936;50.524;8.684;2022-10-18T06:49:08;100249.88;;;16.15;100.00
41202;BME280;26936;50.524;8.684;2022-10-18T06:51:34;100253.84;;;16.18;100.00
41202;BME280;26936;50.524;8.684;2022-10-18T06:53:59;100254.94;;;16.20;100.00
41202;BME280;26936;50.524;8.684;2022-10-18T06:56:24;100257.31;;;16.22;100.00
41202;BME280;26936;50.524;8.684;2022-10-18T06:58:50;100252.41;;;16.22;100.00
41202;BME280;26936;50.524;8.684;2022-10-18T07:01:16;100257.63;;;16.24;100.00
41202;BME280;26936;50.524;8.684;2022-10-18T07:03:42;100259.84;;;16.29;100.00
41202;BME280;26936;50.524;8.684;2022-10-18T07:06:09;100272.78;;;16.30;100.00
41202;BME280;26936;50.524;8.684;2022-10-18T07:08:36;100265.88;;;16.31;100.00
41202;BME280;26936;50.524;8.684;2022-10-18T07:11:02;100266.19;;;16.33;100.00
41202;BME280;26936;50.524;8.684;2022-10-18T07:13:29;100273.13;;;16.32;100.00
41202;BME280;26936;50.524;8.684;2022-10-18T07:16:02;100286.53;;;16.31;100.00
41202;BME280;26936;50.524;8.684;2022-10-18T07:18:28;100293.97;;;16.29;100.00
41202;BME280;26936;50.524;8.684;2022-10-18T07:20:53;100299.00;;;16.25;100.00
41202;BME280;26936;50.524;8.684;2022-10-18T07:23:18;100296.63;;;16.23;100.00
41202;BME280;26936;50.524;8.684;2022-10-18T07:25:45;100305.16;;;16.23;100.00
41202;BME280;26936;50.524;8.684;2022-10-18T07:28:11;100310.69;;;16.18;100.00
41202;BME280;26936;50.524;8.684;2022-10-18T07:30:36;100314.16;;;16.22;100.00
41202;BME280;26936;50.524;8.684;2022-10-18T07:33:01;100319.53;;;16.20;100.00
41202;BME280;26936;50.524;8.684;2022-10-18T07:35:26;100314.47;;;16.15;100.00
41202;BME280;26936;50.524;8.684;2022-10-18T07:37:52;100318.06;;;16.15;100.00
41202;BME280;26936;50.524;8.684;2022-10-18T07:40:17;100320.28;;;16.11;100.00
41202;BME280;26936;50.524;8.684;2022-10-18T07:42:42;100316.78;;;16.07;100.00
41202;BME280;26936;50.524;8.684;2022-10-18T07:45:07;100323.28;;;16.08;100.00
41202;BME280;26936;50.524;8.684;2022-10-18T07:47:33;100307.03;;;16.08;100.00
41202;BME280;26936;50.524;8.684;2022-10-18T07:49:58;100310.63;;;16.09;100.00
41202;BME280;26936;50.524;8.684;2022-10-18T07:52:23;100310.78;;;16.05;100.00
41202;BME280;26936;50.524;8.684;2022-10-18T07:54:49;100318.06;;;16.06;100.00
41202;BME280;26936;50.524;8.684;2022-10-18T07:57:14;100314.41;;;16.06;100.00
41202;BME280;26936;50.524;8.684;2022-10-18T07:59:39;100321.38;;;16.05;100.00
41202;BME280;26936;50.524;8.684;2022-10-18T08:02:05;100314.28;;;16.09;100.00
41202;BME280;26936;50.524;8.684;2022-10-18T08:04:30;100319.50;;;16.11;100.00
41202;BME280;26936;50.524;8.684;2022-10-18T08:06:55;100320.44;;;16.08;100.00
41202;BME280;26936;50.524;8.684;2022-10-18T08:09:20;100312.09;;;16.13;100.00
41202;BME280;26936;50.524;8.684;2022-10-18T08:11:46;100322.81;;;16.18;100.00
41202;BME280;26936;50.524;8.684;2022-10-18T08:14:11;100321.59;;;16.28;100.00
41202;BME280;26936;50.524;8.684;2022-10-18T08:16:36;100315.75;;;16.32;100.00
41202;BME280;26936;50.524;8.684;2022-10-18T08:19:01;100320.34;;;16.39;100.00
41202;BME280;26936;50.524;8.684;2022-10-18T08:21:27;100336.22;;;16.49;100.00
41202;BME280;26936;50.524;8.684;2022-10-18T08:23:52;100330.25;;;16.56;100.00
41202;BME280;26936;50.524;8.684;2022-10-18T08:26:19;100338.28;;;16.57;100.00
41202;BME280;26936;50.524;8.684;2022-10-18T08:28:45;100334.50;;;16.60;100.00
41202;BME280;26936;50.524;8.684;2022-10-18T08:31:12;100335.47;;;16.66;100.00
41202;BME280;26936;50.524;8.684;2022-10-18T08:33:38;100338.47;;;16.72;100.00
41202;BME280;26936;50.524;8.684;2022-10-18T08:36:06;100351.28;;;16.76;100.00
41202;BME280;26936;50.524;8.684;2022-10-18T08:38:33;100348.59;;;16.73;100.00
41202;BME280;26936;50.524;8.684;2022-10-18T08:44:19;100353.50;;;16.81;100.00
41202;BME280;26936;50.524;8.684;2022-10-18T08:46:48;100350.84;;;16.87;100.00
41202;BME280;26936;50.524;8.684;2022-10-18T08:49:27;100349.56;;;16.97;100.00
41202;BME280;26936;50.524;8.684;2022-10-18T08:51:55;100352.91;;;17.04;100.00
41202;BME280;26936;50.524;8.684;2022-10-18T08:54:33;100348.47;;;17.12;100.00
41202;BME280;26936;50.524;8.684;2022-10-18T08:57:02;100346.09;;;17.11;100.00
41202;BME280;26936;50.524;8.684;2022-10-18T08:59:33;100346.22;;;17.16;100.00
41202;BME280;26936;50.524;8.684;2022-10-18T09:02:14;100355.28;;;17.24;100.00
41202;BME280;26936;50.524;8.684;2022-10-18T09:04:48;100358.56;;;17.31;100.00
41202;BME280;26936;50.524;8.684;2022-10-18T09:10:17;100368.41;;;17.30;100.00
41202;BME280;26936;50.524;8.684;2022-10-18T09:15:17;100371.56;;;17.32;100.00
41202;BME280;26936;50.524;8.684;2022-10-18T09:20:55;100370.59;;;17.35;100.00
41202;BME280;26936;50.524;8.684;2022-10-18T09:23:48;100377.91;;;17.45;100.00
41202;BME280;26936;50.524;8.684;2022-10-18T09:26:17;100379.81;;;17.48;100.00
41202;BME280;26936;50.524;8.684;2022-10-18T09:31:53;100388.66;;;17.50;100.00
41202;BME280;26936;50.524;8.684;2022-10-18T09:34:36;100384.22;;;17.49;100.00
41202;BME280;26936;50.524;8.684;2022-10-18T09:37:03;100379.81;;;17.48;100.00
41202;BME280;26936;50.524;8.684;2022-10-18T09:39:31;100381.22;;;17.53;100.00
41202;BME280;26936;50.524;8.684;2022-10-18T09:42:15;100380.09;;;17.59;100.00
41202;BME280;26936;50.524;8.684;2022-10-18T09:44:53;100383.25;;;17.71;100.00
41202;BME280;26936;50.524;8.684;2022-10-18T09:47:31;100387.34;;;17.88;100.00
41202;BME280;26936;50.524;8.684;2022-10-18T09:50:14;100383.19;;;17.98;100.00
41202;BME280;26936;50.524;8.684;2022-10-18T09:52:50;100383.19;;;17.98;100.00
41202;BME280;26936;50.524;8.684;2022-10-18T09:55:23;100384.72;;;18.08;100.00
41202;BME280;26936;50.524;8.684;2022-10-18T09:57:56;100394.38;;;18.10;100.00
41202;BME280;26936;50.524;8.684;2022-10-18T10:00:34;100392.16;;;18.14;100.00
41202;BME280;26936;50.524;8.684;2022-10-18T10:03:09;100394.34;;;18.19;100.00
41202;BME280;26936;50.524;8.684;2022-10-18T10:05:36;100402.41;;;18.30;100.00
41202;BME280;26936;50.524;8.684;2022-10-18T10:08:01;100394.09;;;18.50;100.00
41202;BME280;26936;50.524;8.684;2022-10-18T10:10:28;100398.00;;;18.61;100.00
41202;BME280;26936;50.524;8.684;2022-10-18T10:13:13;100395.16;;;18.61;100.00
41202;BME280;26936;50.524;8.684;2022-10-18T10:15:45;100395.81;;;18.56;100.00
41202;BME280;26936;50.524;8.684;2022-10-18T10:18:21;100402.59;;;18.59;100.00
41202;BME280;26936;50.524;8.684;2022-10-18T10:20:51;100408.16;;;18.53;100.00
41202;BME280;26936;50.524;8.684;2022-10-18T10:23:30;100409.31;;;18.47;100.00
41202;BME280;26936;50.524;8.684;2022-10-18T10:26:06;100416.78;;;18.44;100.00
41202;BME280;26936;50.524;8.684;2022-10-18T10:28:44;100417.88;;;18.47;100.00
41202;BME280;26936;50.524;8.684;2022-10-18T10:31:27;100423.88;;;18.49;100.00
41202;BME280;26936;50.524;8.684;2022-10-18T10:34:03;100421.69;;;18.44;100.00
41202;BME280;26936;50.524;8.684;2022-10-18T10:36:29;100423.78;;;18.43;100.00
41202;BME280;26936;50.524;8.684;2022-10-18T10:41:28;100417.44;;;18.72;100.00
41202;BME280;26936;50.524;8.684;2022-10-18T10:43:53;100421.03;;;18.81;100.00
41202;BME280;26936;50.524;8.684;2022-10-18T10:46:19;100420.13;;;18.75;100.00
41202;BME280;26936;50.524;8.684;2022-10-18T10:48:57;100419.09;;;18.87;100.00
41202;BME280;26936;50.524;8.684;2022-10-18T10:54:00;100419.09;;;18.87;100.00
41202;BME280;26936;50.524;8.684;2022-10-18T10:56:35;100421.66;;;18.85;100.00
41202;BME280;26936;50.524;8.684;2022-10-18T10:59:12;100424.06;;;18.78;100.00
41202;BME280;26936;50.524;8.684;2022-10-18T11:01:39;100428.59;;;18.93;100.00
41202;BME280;26936;50.524;8.684;2022-10-18T11:04:26;100427.91;;;18.99;100.00
41202;BME280;26936;50.524;8.684;2022-10-18T11:07:05;100426.63;;;19.00;100.00
41202;BME280;26936;50.524;8.684;2022-10-18T11:12:40;100437.50;;;18.86;100.00
41202;BME280;26936;50.524;8.684;2022-10-18T11:15:16;100431.28;;;18.88;100.00
41202;BME280;26936;50.524;8.684;2022-10-18T11:17:57;100430.03;;;18.89;100.00
41202;BME280;26936;50.524;8.684;2022-10-18T11:23:13;100423.34;;;18.92;100.00
41202;BME280;26936;50.524;8.684;2022-10-18T11:31:33;100430.63;;;18.69;100.00
41202;BME280;26936;50.524;8.684;2022-10-18T11:34:14;100427.78;;;18.69;100.00
41202;BME280;26936;50.524;8.684;2022-10-18T11:36:54;100422.25;;;18.66;100.00
41202;BME280;26936;50.524;8.684;2022-10-18T11:42:02;100425.41;;;18.68;100.00
41202;BME280;26936;50.524;8.684;2022-10-18T11:45:02;100417.75;;;18.74;100.00
41202;BME280;26936;50.524;8.684;2022-10-18T11:50:47;100418.84;;;18.76;100.00
41202;BME280;26936;50.524;8.684;2022-10-18T11:56:41;100399.59;;;18.86;100.00
41202;BME280;26936;50.524;8.684;2022-10-18T12:04:55;100398.81;;;19.09;100.00
41202;BME280;26936;50.524;8.684;2022-10-18T12:07:22;100395.72;;;19.22;100.00
41202;BME280;26936;50.524;8.684;2022-10-18T12:09:50;100390.75;;;19.31;100.00
41202;BME280;26936;50.524;8.684;2022-10-18T12:15:13;100391.13;;;19.39;100.00
41202;BME280;26936;50.524;8.684;2022-10-18T12:17:43;100376.56;;;19.51;100.00
41202;BME280;26936;50.524;8.684;2022-10-18T12:23:02;100376.91;;;19.82;100.00
41202;BME280;26936;50.524;8.684;2022-10-18T12:25:32;100370.31;;;19.91;100.00
41202;BME280;26936;50.524;8.684;2022-10-18T12:28:03;100368.34;;;20.11;100.00
41202;BME280;26936;50.524;8.684;2022-10-18T12:30:40;100365.38;;;20.20;97.56
41202;BME280;26936;50.524;8.684;2022-10-18T12:33:12;100375.50;;;20.71;97.49
41202;BME280;26936;50.524;8.684;2022-10-18T12:38:30;100371.78;;;20.99;92.59
41202;BME280;26936;50.524;8.684;2022-10-18T12:40:56;100366.84;;;21.00;90.63
41202;BME280;26936;50.524;8.684;2022-10-18T12:43:25;100372.28;;;20.98;90.64
41202;BME280;26936;50.524;8.684;2022-10-18T12:45:56;100374.50;;;20.88;92.95
41202;BME280;26936;50.524;8.684;2022-10-18T12:48:36;100368.00;;;20.93;89.61
41202;BME280;26936;50.524;8.684;2022-10-18T12:51:11;100371.31;;;20.86;91.89
41202;BME280;26936;50.524;8.684;2022-10-18T12:53:38;100369.63;;;20.94;91.77
41202;BME280;26936;50.524;8.684;2022-10-18T13:17:50;100360.97;;;20.54;96.83
41202;BME280;26936;50.524;8.684;2022-10-18T13:20:25;100365.06;;;20.33;96.38
41202;BME280;26936;50.524;8.684;2022-10-18T13:25:53;100370.00;;;20.03;100.00
41202;BME280;26936;50.524;8.684;2022-10-18T13:31:21;100370.31;;;19.91;98.93
41202;BME280;26936;50.524;8.684;2022-10-18T13:33:47;100374.34;;;19.84;99.46
41202;BME280;26936;50.524;8.684;2022-10-18T13:41:13;100364.19;;;19.98;100.00
41202;BME280;26936;50.524;8.684;2022-10-18T13:46:21;100355.81;;;20.23;97.55
41202;BME280;26936;50.524;8.684;2022-10-18T14:02:51;100357.78;;;20.17;93.66
41202;BME280;26936;50.524;8.684;2022-10-18T14:07:50;100370.59;;;20.22;94.55
41202;BME280;26936;50.524;8.684;2022-10-18T14:10:22;100361.94;;;20.31;93.38
41202;BME280;26936;50.524;8.684;2022-10-18T14:12:51;100368.22;;;20.35;94.65
41202;BME280;26936;50.524;8.684;2022-10-18T14:15:26;100370.09;;;20.38;95.14
41202;BME280;26936;50.524;8.684;2022-10-18T14:18:01;100369.50;;;20.34;95.81
41202;BME280;26936;50.524;8.684;2022-10-18T14:20:35;100372.63;;;20.36;95.64
41202;BME280;26936;50.524;8.684;2022-10-18T14:23:13;100377.19;;;20.28;95.97
41202;BME280;26936;50.524;8.684;2022-10-18T14:25:40;100369.91;;;20.27;96.17
41202;BME280;26936;50.524;8.684;2022-10-18T14:28:21;100366.06;;;20.30;98.88
41202;BME280;26936;50.524;8.684;2022-10-18T14:33:36;100369.50;;;20.34;96.33
41202;BME280;26936;50.524;8.684;2022-10-18T14:36:06;100362.63;;;20.26;96.73
41202;BME280;26936;50.524;8.684;2022-10-18T14:38:34;100374.06;;;20.26;98.26
41202;BME280;26936;50.524;8.684;2022-10-18T14:43:48;100376.31;;;20.07;100.00
41202;BME280;26936;50.524;8.684;2022-10-18T14:46:17;100380.84;;;19.99;99.77
41202;BME280;26936;50.524;8.684;2022-10-18T14:48:57;100367.38;;;19.85;100.00
41202;BME280;26936;50.524;8.684;2022-10-18T14:51:24;100371.88;;;19.77;100.00
41202;BME280;26936;50.524;8.684;2022-10-18T14:53:50;100381.94;;;19.73;100.00
41202;BME280;26936;50.524;8.684;2022-10-18T14:56:30;100380.75;;;19.65;100.00
41202;BME280;26936;50.524;8.684;2022-10-18T14:59:02;100383.78;;;19.61;100.00
41202;BME280;26936;50.524;8.684;2022-10-18T15:01:30;100377.69;;;19.54;100.00